sensor_id;sensor_type;location;lat;lon;timestamp;temperature;humidity
17988;DHT22;9119;50.932;5.342;2022-08-19T00:02:04;21.70;99.90
17988;DHT22;9119;50.932;5.342;2022-08-19T00:04:33;21.70;99.90
17988;DHT22;9119;50.932;5.342;2022-08-19T00:07:02;21.70;99.90
17988;DHT22;9119;50.932;5.342;2022-08-19T00:09:29;21.70;99.90
17988;DHT22;9119;50.932;5.342;2022-08-19T00:11:55;21.60;99.90
17988;DHT22;9119;50.932;5.342;2022-08-19T00:14:22;21.60;99.90
17988;DHT22;9119;50.932;5.342;2022-08-19T00:16:49;21.60;99.90
17988;DHT22;9119;50.932;5.342;2022-08-19T00:19:17;21.60;99.90
17988;DHT22;9119;50.932;5.342;2022-08-19T00:21:43;21.60;99.90
17988;DHT22;9119;50.932;5.342;2022-08-19T00:24:10;21.50;99.90
17988;DHT22;9119;50.932;5.342;2022-08-19T00:26:36;21.30;99.90
17988;DHT22;9119;50.932;5.342;2022-08-19T00:29:04;21.30;99.90
17988;DHT22;9119;50.932;5.342;2022-08-19T00:31:30;21.40;99.90
17988;DHT22;9119;50.932;5.342;2022-08-19T00:33:56;21.30;99.90
17988;DHT22;9119;50.932;5.342;2022-08-19T00:36:22;21.20;99.90
17988;DHT22;9119;50.932;5.342;2022-08-19T00:38:48;21.50;99.90
17988;DHT22;9119;50.932;5.342;2022-08-19T00:41:16;21.20;99.90
17988;DHT22;9119;50.932;5.342;2022-08-19T00:43:43;21.20;99.90
17988;DHT22;9119;50.932;5.342;2022-08-19T00:46:09;21.20;99.90
17988;DHT22;9119;50.932;5.342;2022-08-19T00:48:35;21.20;99.90
17988;DHT22;9119;50.932;5.342;2022-08-19T00:51:02;21.10;99.90
17988;DHT22;9119;50.932;5.342;2022-08-19T00:53:30;21.10;99.90
17988;DHT22;9119;50.932;5.342;2022-08-19T00:55:59;21.10;99.90
17988;DHT22;9119;50.932;5.342;2022-08-19T00:58:30;21.10;99.90
17988;DHT22;9119;50.932;5.342;2022-08-19T01:00:58;21.00;99.90
17988;DHT22;9119;50.932;5.342;2022-08-19T01:03:23;21.00;99.90
17988;DHT22;9119;50.932;5.342;2022-08-19T01:05:50;20.90;99.90
17988;DHT22;9119;50.932;5.342;2022-08-19T01:08:18;20.90;99.90
17988;DHT22;9119;50.932;5.342;2022-08-19T01:10:51;20.80;99.90
17988;DHT22;9119;50.932;5.342;2022-08-19T01:13:21;20.70;99.90
17988;DHT22;9119;50.932;5.342;2022-08-19T01:16:02;20.70;99.90
17988;DHT22;9119;50.932;5.342;2022-08-19T01:18:29;20.70;99.90
17988;DHT22;9119;50.932;5.342;2022-08-19T01:20:57;20.70;99.90
17988;DHT22;9119;50.932;5.342;2022-08-19T01:23:23;20.50;99.90
17988;DHT22;9119;50.932;5.342;2022-08-19T01:26:22;20.50;99.90
17988;DHT22;9119;50.932;5.342;2022-08-19T01:28:50;20.50;99.90
17988;DHT22;9119;50.932;5.342;2022-08-19T01:31:21;20.40;99.90
17988;DHT22;9119;50.932;5.342;2022-08-19T01:33:49;20.30;99.90
17988;DHT22;9119;50.932;5.342;2022-08-19T01:36:27;20.30;99.90
17988;DHT22;9119;50.932;5.342;2022-08-19T01:38:54;20.10;99.90
17988;DHT22;9119;50.932;5.342;2022-08-19T01:41:19;19.90;99.90
17988;DHT22;9119;50.932;5.342;2022-08-19T01:43:45;19.90;99.90
17988;DHT22;9119;50.932;5.342;2022-08-19T01:46:11;19.80;99.90
17988;DHT22;9119;50.932;5.342;2022-08-19T01:48:40;19.80;99.90
17988;DHT22;9119;50.932;5.342;2022-08-19T01:51:07;19.80;99.90
17988;DHT22;9119;50.932;5.342;2022-08-19T01:53:34;19.80;99.90
17988;DHT22;9119;50.932;5.342;2022-08-19T01:56:00;19.70;99.90
17988;DHT22;9119;50.932;5.342;2022-08-19T01:58:51;19.70;99.90
17988;DHT22;9119;50.932;5.342;2022-08-19T02:01:19;19.70;99.90
17988;DHT22;9119;50.932;5.342;2022-08-19T02:03:45;19.70;99.90
17988;DHT22;9119;50.932;5.342;2022-08-19T02:06:11;19.70;99.90
17988;DHT22;9119;50.932;5.342;2022-08-19T02:08:39;19.70;99.90
17988;DHT22;9119;50.932;5.342;2022-08-19T02:11:05;19.50;99.90
17988;DHT22;9119;50.932;5.342;2022-08-19T02:13:31;19.60;99.90
17988;DHT22;9119;50.932;5.342;2022-08-19T02:15:57;19.70;99.90
17988;DHT22;9119;50.932;5.342;2022-08-19T02:18:23;19.80;99.90
17988;DHT22;9119;50.932;5.342;2022-08-19T02:20:49;19.80;99.90
17988;DHT22;9119;50.932;5.342;2022-08-19T02:23:16;19.80;99.90
17988;DHT22;9119;50.932;5.342;2022-08-19T02:25:45;19.80;99.90
17988;DHT22;9119;50.932;5.342;2022-08-19T02:28:12;19.80;99.90
17988;DHT22;9119;50.932;5.342;2022-08-19T02:30:38;19.90;99.90
17988;DHT22;9119;50.932;5.342;2022-08-19T02:33:05;19.90;99.90
17988;DHT22;9119;50.932;5.342;2022-08-19T02:35:31;19.90;99.90
17988;DHT22;9119;50.932;5.342;2022-08-19T02:37:57;19.80;99.90
17988;DHT22;9119;50.932;5.342;2022-08-19T02:40:48;19.90;99.90
17988;DHT22;9119;50.932;5.342;2022-08-19T02:43:15;19.80;99.90
17988;DHT22;9119;50.932;5.342;2022-08-19T02:45:41;19.70;99.90
17988;DHT22;9119;50.932;5.342;2022-08-19T02:48:08;19.70;99.90
17988;DHT22;9119;50.932;5.342;2022-08-19T02:50:38;19.70;99.90
17988;DHT22;9119;50.932;5.342;2022-08-19T02:53:04;19.60;99.90
17988;DHT22;9119;50.932;5.342;2022-08-19T02:55:31;19.60;99.90
17988;DHT22;9119;50.932;5.342;2022-08-19T02:57:56;19.40;99.90
17988;DHT22;9119;50.932;5.342;2022-08-19T03:00:22;19.40;99.90
17988;DHT22;9119;50.932;5.342;2022-08-19T03:02:49;19.50;99.90
17988;DHT22;9119;50.932;5.342;2022-08-19T03:05:15;19.30;99.90
17988;DHT22;9119;50.932;5.342;2022-08-19T03:07:41;19.30;99.90
17988;DHT22;9119;50.932;5.342;2022-08-19T03:10:07;19.40;99.90
17988;DHT22;9119;50.932;5.342;2022-08-19T03:12:37;19.10;99.90
17988;DHT22;9119;50.932;5.342;2022-08-19T03:15:04;19.00;99.90
17988;DHT22;9119;50.932;5.342;2022-08-19T03:17:30;19.00;99.90
17988;DHT22;9119;50.932;5.342;2022-08-19T03:19:56;19.10;99.90
17988;DHT22;9119;50.932;5.342;2022-08-19T03:22:21;19.10;99.90
17988;DHT22;9119;50.932;5.342;2022-08-19T03:24:47;19.00;99.90
17988;DHT22;9119;50.932;5.342;2022-08-19T03:27:13;19.00;99.90
17988;DHT22;9119;50.932;5.342;2022-08-19T03:29:39;19.00;99.90
17988;DHT22;9119;50.932;5.342;2022-08-19T03:32:06;19.00;99.90
17988;DHT22;9119;50.932;5.342;2022-08-19T03:34:33;19.00;99.90
17988;DHT22;9119;50.932;5.342;2022-08-19T03:37:05;19.00;99.90
17988;DHT22;9119;50.932;5.342;2022-08-19T03:39:31;19.10;99.90
17988;DHT22;9119;50.932;5.342;2022-08-19T03:41:57;19.20;99.90
17988;DHT22;9119;50.932;5.342;2022-08-19T03:44:25;19.20;99.90
17988;DHT22;9119;50.932;5.342;2022-08-19T03:46:58;19.20;99.90
17988;DHT22;9119;50.932;5.342;2022-08-19T03:49:27;19.50;99.90
17988;DHT22;9119;50.932;5.342;2022-08-19T03:51:55;19.30;99.90
17988;DHT22;9119;50.932;5.342;2022-08-19T03:54:23;19.20;99.90
17988;DHT22;9119;50.932;5.342;2022-08-19T03:56:51;19.20;99.90
17988;DHT22;9119;50.932;5.342;2022-08-19T03:59:21;19.20;99.90
17988;DHT22;9119;50.932;5.342;2022-08-19T04:01:48;19.20;99.90
17988;DHT22;9119;50.932;5.342;2022-08-19T04:04:14;19.10;99.90
17988;DHT22;9119;50.932;5.342;2022-08-19T04:06:40;19.10;99.90
17988;DHT22;9119;50.932;5.342;2022-08-19T04:09:08;19.20;99.90
17988;DHT22;9119;50.932;5.342;2022-08-19T04:11:38;19.20;99.90
17988;DHT22;9119;50.932;5.342;2022-08-19T04:14:08;19.20;99.90
17988;DHT22;9119;50.932;5.342;2022-08-19T04:16:34;19.20;99.90
17988;DHT22;9119;50.932;5.342;2022-08-19T04:19:01;19.20;99.90
17988;DHT22;9119;50.932;5.342;2022-08-19T04:21:28;19.10;99.90
17988;DHT22;9119;50.932;5.342;2022-08-19T04:23:55;19.10;99.90
17988;DHT22;9119;50.932;5.342;2022-08-19T04:26:26;19.10;99.90
17988;DHT22;9119;50.932;5.342;2022-08-19T04:28:52;19.10;99.90
17988;DHT22;9119;50.932;5.342;2022-08-19T04:31:22;19.10;99.90
17988;DHT22;9119;50.932;5.342;2022-08-19T04:33:48;19.10;99.90
17988;DHT22;9119;50.932;5.342;2022-08-19T04:36:18;19.10;99.90
17988;DHT22;9119;50.932;5.342;2022-08-19T04:38:46;19.00;99.90
17988;DHT22;9119;50.932;5.342;2022-08-19T04:41:12;18.90;99.90
17988;DHT22;9119;50.932;5.342;2022-08-19T04:43:56;18.70;99.90
17988;DHT22;9119;50.932;5.342;2022-08-19T04:46:22;19.00;99.90
17988;DHT22;9119;50.932;5.342;2022-08-19T04:48:48;18.80;99.90
17988;DHT22;9119;50.932;5.342;2022-08-19T04:51:13;18.80;99.90
17988;DHT22;9119;50.932;5.342;2022-08-19T04:53:41;18.80;99.90
17988;DHT22;9119;50.932;5.342;2022-08-19T04:56:13;18.90;99.90
17988;DHT22;9119;50.932;5.342;2022-08-19T04:58:41;18.90;99.90
17988;DHT22;9119;50.932;5.342;2022-08-19T05:01:11;18.80;99.90
17988;DHT22;9119;50.932;5.342;2022-08-19T05:03:37;18.90;99.90
17988;DHT22;9119;50.932;5.342;2022-08-19T05:06:06;19.10;99.90
17988;DHT22;9119;50.932;5.342;2022-08-19T05:08:34;19.00;99.90
17988;DHT22;9119;50.932;5.342;2022-08-19T05:11:00;19.20;99.90
17988;DHT22;9119;50.932;5.342;2022-08-19T05:13:26;19.00;99.90
17988;DHT22;9119;50.932;5.342;2022-08-19T05:15:58;19.10;99.90
17988;DHT22;9119;50.932;5.342;2022-08-19T05:18:25;19.00;99.90
17988;DHT22;9119;50.932;5.342;2022-08-19T05:21:18;19.00;99.90
17988;DHT22;9119;50.932;5.342;2022-08-19T05:24:04;19.00;99.90
17988;DHT22;9119;50.932;5.342;2022-08-19T05:26:39;19.00;99.90
17988;DHT22;9119;50.932;5.342;2022-08-19T05:29:05;18.90;99.90
17988;DHT22;9119;50.932;5.342;2022-08-19T05:31:33;19.00;99.90
17988;DHT22;9119;50.932;5.342;2022-08-19T05:33:58;18.90;99.90
17988;DHT22;9119;50.932;5.342;2022-08-19T05:36:26;19.00;99.90
17988;DHT22;9119;50.932;5.342;2022-08-19T05:38:52;19.00;99.90
17988;DHT22;9119;50.932;5.342;2022-08-19T05:41:19;19.10;99.90
17988;DHT22;9119;50.932;5.342;2022-08-19T05:43:46;19.30;99.90
17988;DHT22;9119;50.932;5.342;2022-08-19T05:46:19;19.00;99.90
17988;DHT22;9119;50.932;5.342;2022-08-19T05:48:45;19.10;99.90
17988;DHT22;9119;50.932;5.342;2022-08-19T05:51:11;19.10;99.90
17988;DHT22;9119;50.932;5.342;2022-08-19T05:53:37;19.00;99.90
17988;DHT22;9119;50.932;5.342;2022-08-19T05:56:12;19.20;99.90
17988;DHT22;9119;50.932;5.342;2022-08-19T05:58:38;19.20;99.90
17988;DHT22;9119;50.932;5.342;2022-08-19T06:01:09;19.20;99.90
17988;DHT22;9119;50.932;5.342;2022-08-19T06:03:36;19.20;99.90
17988;DHT22;9119;50.932;5.342;2022-08-19T06:06:04;18.90;99.90
17988;DHT22;9119;50.932;5.342;2022-08-19T06:08:31;18.90;99.90
17988;DHT22;9119;50.932;5.342;2022-08-19T06:10:57;19.00;99.90
17988;DHT22;9119;50.932;5.342;2022-08-19T06:13:22;19.00;99.90
17988;DHT22;9119;50.932;5.342;2022-08-19T06:15:49;19.10;99.90
17988;DHT22;9119;50.932;5.342;2022-08-19T06:18:15;19.10;99.90
17988;DHT22;9119;50.932;5.342;2022-08-19T06:20:41;19.20;99.90
17988;DHT22;9119;50.932;5.342;2022-08-19T06:23:08;19.30;99.90
17988;DHT22;9119;50.932;5.342;2022-08-19T06:25:35;19.30;99.90
17988;DHT22;9119;50.932;5.342;2022-08-19T06:28:02;19.20;99.90
17988;DHT22;9119;50.932;5.342;2022-08-19T06:30:28;19.10;99.90
17988;DHT22;9119;50.932;5.342;2022-08-19T06:32:54;19.10;99.90
17988;DHT22;9119;50.932;5.342;2022-08-19T06:35:19;19.10;99.90
17988;DHT22;9119;50.932;5.342;2022-08-19T06:37:45;19.20;99.90
17988;DHT22;9119;50.932;5.342;2022-08-19T06:40:11;19.30;99.90
17988;DHT22;9119;50.932;5.342;2022-08-19T06:42:38;19.40;99.90
17988;DHT22;9119;50.932;5.342;2022-08-19T06:45:05;19.50;99.90
17988;DHT22;9119;50.932;5.342;2022-08-19T06:47:31;19.30;99.90
17988;DHT22;9119;50.932;5.342;2022-08-19T06:49:58;19.20;99.90
17988;DHT22;9119;50.932;5.342;2022-08-19T06:52:27;19.20;99.90
17988;DHT22;9119;50.932;5.342;2022-08-19T06:54:53;19.30;99.90
17988;DHT22;9119;50.932;5.342;2022-08-19T06:57:20;19.40;99.90
17988;DHT22;9119;50.932;5.342;2022-08-19T06:59:46;19.60;99.90
17988;DHT22;9119;50.932;5.342;2022-08-19T07:02:12;19.70;99.90
17988;DHT22;9119;50.932;5.342;2022-08-19T07:04:37;19.80;99.90
17988;DHT22;9119;50.932;5.342;2022-08-19T07:07:10;20.20;99.90
17988;DHT22;9119;50.932;5.342;2022-08-19T07:09:39;20.10;99.90
17988;DHT22;9119;50.932;5.342;2022-08-19T07:12:07;20.10;99.90
17988;DHT22;9119;50.932;5.342;2022-08-19T07:14:34;20.20;99.90
17988;DHT22;9119;50.932;5.342;2022-08-19T07:17:06;20.10;99.90
17988;DHT22;9119;50.932;5.342;2022-08-19T07:19:32;20.00;99.90
17988;DHT22;9119;50.932;5.342;2022-08-19T07:22:01;20.00;99.90
17988;DHT22;9119;50.932;5.342;2022-08-19T07:24:27;20.10;99.90
17988;DHT22;9119;50.932;5.342;2022-08-19T07:26:55;20.30;99.90
17988;DHT22;9119;50.932;5.342;2022-08-19T07:29:22;20.40;99.90
17988;DHT22;9119;50.932;5.342;2022-08-19T07:31:52;20.40;99.90
17988;DHT22;9119;50.932;5.342;2022-08-19T07:34:22;20.50;99.90
17988;DHT22;9119;50.932;5.342;2022-08-19T07:36:47;20.30;99.90
17988;DHT22;9119;50.932;5.342;2022-08-19T07:39:18;20.20;99.90
17988;DHT22;9119;50.932;5.342;2022-08-19T07:41:45;20.30;99.90
17988;DHT22;9119;50.932;5.342;2022-08-19T07:44:12;20.50;99.90
17988;DHT22;9119;50.932;5.342;2022-08-19T07:46:40;20.60;99.90
17988;DHT22;9119;50.932;5.342;2022-08-19T07:49:07;20.70;99.90
17988;DHT22;9119;50.932;5.342;2022-08-19T07:51:34;20.80;99.90
17988;DHT22;9119;50.932;5.342;2022-08-19T07:54:00;20.90;99.90
17988;DHT22;9119;50.932;5.342;2022-08-19T07:56:26;20.90;99.90
17988;DHT22;9119;50.932;5.342;2022-08-19T07:58:52;21.20;99.90
17988;DHT22;9119;50.932;5.342;2022-08-19T08:01:24;21.10;99.90
17988;DHT22;9119;50.932;5.342;2022-08-19T08:03:52;21.00;99.90
17988;DHT22;9119;50.932;5.342;2022-08-19T08:06:37;21.00;99.90
17988;DHT22;9119;50.932;5.342;2022-08-19T08:09:31;21.00;99.90
17988;DHT22;9119;50.932;5.342;2022-08-19T08:12:02;21.00;99.90
17988;DHT22;9119;50.932;5.342;2022-08-19T08:14:35;21.00;99.90
17988;DHT22;9119;50.932;5.342;2022-08-19T08:17:02;21.00;99.90
17988;DHT22;9119;50.932;5.342;2022-08-19T08:19:29;21.10;99.90
17988;DHT22;9119;50.932;5.342;2022-08-19T08:21:57;21.00;99.90
17988;DHT22;9119;50.932;5.342;2022-08-19T08:24:23;21.20;99.90
17988;DHT22;9119;50.932;5.342;2022-08-19T08:26:49;21.60;99.90
17988;DHT22;9119;50.932;5.342;2022-08-19T08:29:15;21.50;99.90
17988;DHT22;9119;50.932;5.342;2022-08-19T08:31:43;21.60;99.90
17988;DHT22;9119;50.932;5.342;2022-08-19T08:34:10;21.60;99.90
17988;DHT22;9119;50.932;5.342;2022-08-19T08:36:38;21.60;99.90
17988;DHT22;9119;50.932;5.342;2022-08-19T08:39:08;21.80;99.90
17988;DHT22;9119;50.932;5.342;2022-08-19T08:41:58;22.10;99.90
17988;DHT22;9119;50.932;5.342;2022-08-19T08:47:04;22.80;99.90
17988;DHT22;9119;50.932;5.342;2022-08-19T08:50:03;22.80;99.90
17988;DHT22;9119;50.932;5.342;2022-08-19T08:52:45;23.00;99.90
17988;DHT22;9119;50.932;5.342;2022-08-19T08:55:19;23.00;99.90
17988;DHT22;9119;50.932;5.342;2022-08-19T09:00:29;22.50;99.90
17988;DHT22;9119;50.932;5.342;2022-08-19T09:02:56;22.80;99.90
17988;DHT22;9119;50.932;5.342;2022-08-19T09:05:25;23.20;99.90
17988;DHT22;9119;50.932;5.342;2022-08-19T09:08:10;23.50;99.90
17988;DHT22;9119;50.932;5.342;2022-08-19T09:10:44;23.40;99.90
17988;DHT22;9119;50.932;5.342;2022-08-19T09:16:10;23.00;99.90
17988;DHT22;9119;50.932;5.342;2022-08-19T09:18:46;22.80;99.90
17988;DHT22;9119;50.932;5.342;2022-08-19T09:21:13;22.80;99.90
17988;DHT22;9119;50.932;5.342;2022-08-19T09:23:39;23.40;99.90
17988;DHT22;9119;50.932;5.342;2022-08-19T09:26:14;24.00;99.90
17988;DHT22;9119;50.932;5.342;2022-08-19T09:28:40;23.80;99.90
17988;DHT22;9119;50.932;5.342;2022-08-19T09:31:29;23.70;99.90
17988;DHT22;9119;50.932;5.342;2022-08-19T09:33:55;23.30;99.90
17988;DHT22;9119;50.932;5.342;2022-08-19T09:36:23;23.70;99.90
17988;DHT22;9119;50.932;5.342;2022-08-19T09:38:51;24.20;99.90
17988;DHT22;9119;50.932;5.342;2022-08-19T09:41:19;24.80;99.90
17988;DHT22;9119;50.932;5.342;2022-08-19T09:43:48;25.00;99.90
17988;DHT22;9119;50.932;5.342;2022-08-19T09:46:13;25.30;99.90
17988;DHT22;9119;50.932;5.342;2022-08-19T09:48:40;25.70;99.90
17988;DHT22;9119;50.932;5.342;2022-08-19T09:51:10;25.60;99.90
17988;DHT22;9119;50.932;5.342;2022-08-19T09:53:37;25.50;99.90
17988;DHT22;9119;50.932;5.342;2022-08-19T09:56:04;25.60;99.90
17988;DHT22;9119;50.932;5.342;2022-08-19T09:58:32;25.00;99.90
17988;DHT22;9119;50.932;5.342;2022-08-19T10:00:59;24.50;99.90
17988;DHT22;9119;50.932;5.342;2022-08-19T10:03:27;25.00;99.90
17988;DHT22;9119;50.932;5.342;2022-08-19T10:05:53;25.00;99.90
17988;DHT22;9119;50.932;5.342;2022-08-19T10:08:22;25.60;99.90
17988;DHT22;9119;50.932;5.342;2022-08-19T10:10:49;26.00;99.90
17988;DHT22;9119;50.932;5.342;2022-08-19T10:13:19;26.00;99.90
17988;DHT22;9119;50.932;5.342;2022-08-19T10:15:52;25.80;99.90
17988;DHT22;9119;50.932;5.342;2022-08-19T10:18:20;25.60;99.90
17988;DHT22;9119;50.932;5.342;2022-08-19T10:20:50;25.40;99.90
17988;DHT22;9119;50.932;5.342;2022-08-19T10:23:17;25.70;99.90
17988;DHT22;9119;50.932;5.342;2022-08-19T10:25:43;26.20;99.90
17988;DHT22;9119;50.932;5.342;2022-08-19T10:28:09;26.20;99.90
17988;DHT22;9119;50.932;5.342;2022-08-19T10:30:40;26.10;99.90
17988;DHT22;9119;50.932;5.342;2022-08-19T10:33:06;26.40;99.90
17988;DHT22;9119;50.932;5.342;2022-08-19T10:35:32;26.60;99.90
17988;DHT22;9119;50.932;5.342;2022-08-19T10:37:59;26.70;99.90
17988;DHT22;9119;50.932;5.342;2022-08-19T10:40:27;26.40;99.90
17988;DHT22;9119;50.932;5.342;2022-08-19T10:42:54;25.70;99.90
17988;DHT22;9119;50.932;5.342;2022-08-19T10:45:23;25.30;99.90
17988;DHT22;9119;50.932;5.342;2022-08-19T10:47:53;25.20;99.90
17988;DHT22;9119;50.932;5.342;2022-08-19T10:50:19;25.10;99.90
17988;DHT22;9119;50.932;5.342;2022-08-19T10:53:06;25.60;99.90
17988;DHT22;9119;50.932;5.342;2022-08-19T10:55:35;25.70;99.90
17988;DHT22;9119;50.932;5.342;2022-08-19T10:58:21;25.60;99.90
17988;DHT22;9119;50.932;5.342;2022-08-19T11:00:55;25.50;99.90
17988;DHT22;9119;50.932;5.342;2022-08-19T11:03:22;25.20;99.90
17988;DHT22;9119;50.932;5.342;2022-08-19T11:06:00;25.20;99.90
17988;DHT22;9119;50.932;5.342;2022-08-19T11:08:27;25.10;99.90
17988;DHT22;9119;50.932;5.342;2022-08-19T11:10:54;25.00;99.90
17988;DHT22;9119;50.932;5.342;2022-08-19T11:13:33;25.10;99.90
17988;DHT22;9119;50.932;5.342;2022-08-19T11:18:30;25.00;99.90
17988;DHT22;9119;50.932;5.342;2022-08-19T11:21:05;25.10;99.90
17988;DHT22;9119;50.932;5.342;2022-08-19T11:23:31;24.90;99.90
17988;DHT22;9119;50.932;5.342;2022-08-19T11:25:57;25.10;99.90
17988;DHT22;9119;50.932;5.342;2022-08-19T11:28:24;25.40;99.90
17988;DHT22;9119;50.932;5.342;2022-08-19T11:30:50;25.60;99.90
17988;DHT22;9119;50.932;5.342;2022-08-19T11:33:16;25.80;99.90
17988;DHT22;9119;50.932;5.342;2022-08-19T11:35:41;25.30;99.90
17988;DHT22;9119;50.932;5.342;2022-08-19T11:38:07;25.40;99.90
17988;DHT22;9119;50.932;5.342;2022-08-19T11:40:33;25.40;99.90
17988;DHT22;9119;50.932;5.342;2022-08-19T11:42:58;25.50;99.90
17988;DHT22;9119;50.932;5.342;2022-08-19T11:45:26;26.00;99.90
17988;DHT22;9119;50.932;5.342;2022-08-19T11:47:53;26.10;99.90
17988;DHT22;9119;50.932;5.342;2022-08-19T11:50:19;26.30;99.90
17988;DHT22;9119;50.932;5.342;2022-08-19T11:52:46;26.10;99.90
17988;DHT22;9119;50.932;5.342;2022-08-19T11:55:13;26.00;99.90
17988;DHT22;9119;50.932;5.342;2022-08-19T11:57:39;25.80;99.90
17988;DHT22;9119;50.932;5.342;2022-08-19T12:00:06;26.00;99.90
17988;DHT22;9119;50.932;5.342;2022-08-19T12:02:33;26.20;99.90
17988;DHT22;9119;50.932;5.342;2022-08-19T12:04:59;26.10;99.90
17988;DHT22;9119;50.932;5.342;2022-08-19T12:07:28;25.80;99.90
17988;DHT22;9119;50.932;5.342;2022-08-19T12:09:59;25.70;99.90
17988;DHT22;9119;50.932;5.342;2022-08-19T12:12:25;25.70;99.90
17988;DHT22;9119;50.932;5.342;2022-08-19T12:14:52;25.50;99.90
17988;DHT22;9119;50.932;5.342;2022-08-19T12:17:25;25.60;99.90
17988;DHT22;9119;50.932;5.342;2022-08-19T12:19:52;25.40;99.90
17988;DHT22;9119;50.932;5.342;2022-08-19T12:22:17;25.40;99.90
17988;DHT22;9119;50.932;5.342;2022-08-19T12:24:43;25.40;99.90
17988;DHT22;9119;50.932;5.342;2022-08-19T12:27:09;25.60;99.90
17988;DHT22;9119;50.932;5.342;2022-08-19T12:29:35;25.70;99.90
17988;DHT22;9119;50.932;5.342;2022-08-19T12:32:00;26.10;99.90
17988;DHT22;9119;50.932;5.342;2022-08-19T12:34:31;26.50;99.90
17988;DHT22;9119;50.932;5.342;2022-08-19T12:37:00;26.50;99.90
17988;DHT22;9119;50.932;5.342;2022-08-19T12:39:26;26.10;99.90
17988;DHT22;9119;50.932;5.342;2022-08-19T12:41:52;25.90;99.90
17988;DHT22;9119;50.932;5.342;2022-08-19T12:44:18;25.60;99.90
17988;DHT22;9119;50.932;5.342;2022-08-19T12:46:44;25.20;99.90
17988;DHT22;9119;50.932;5.342;2022-08-19T12:49:10;25.10;99.90
17988;DHT22;9119;50.932;5.342;2022-08-19T12:51:35;25.20;99.90
17988;DHT22;9119;50.932;5.342;2022-08-19T12:54:01;25.20;99.90
17988;DHT22;9119;50.932;5.342;2022-08-19T12:56:27;25.30;99.90
17988;DHT22;9119;50.932;5.342;2022-08-19T12:58:52;25.20;99.90
17988;DHT22;9119;50.932;5.342;2022-08-19T13:01:18;25.20;99.90
17988;DHT22;9119;50.932;5.342;2022-08-19T13:03:46;25.20;99.90
17988;DHT22;9119;50.932;5.342;2022-08-19T13:06:12;25.20;99.90
17988;DHT22;9119;50.932;5.342;2022-08-19T13:08:38;25.40;99.90
17988;DHT22;9119;50.932;5.342;2022-08-19T13:11:19;25.40;99.90
17988;DHT22;9119;50.932;5.342;2022-08-19T13:13:49;25.40;99.90
17988;DHT22;9119;50.932;5.342;2022-08-19T13:16:16;25.30;99.90
17988;DHT22;9119;50.932;5.342;2022-08-19T13:18:44;25.40;99.90
17988;DHT22;9119;50.932;5.342;2022-08-19T13:21:10;25.40;99.90
17988;DHT22;9119;50.932;5.342;2022-08-19T13:23:40;25.40;99.90
17988;DHT22;9119;50.932;5.342;2022-08-19T13:26:08;25.40;99.90
17988;DHT22;9119;50.932;5.342;2022-08-19T13:28:34;25.20;99.90
17988;DHT22;9119;50.932;5.342;2022-08-19T13:31:20;25.10;99.90
17988;DHT22;9119;50.932;5.342;2022-08-19T13:34:06;25.10;99.90
17988;DHT22;9119;50.932;5.342;2022-08-19T13:36:36;25.10;99.90
17988;DHT22;9119;50.932;5.342;2022-08-19T13:39:03;25.00;99.90
17988;DHT22;9119;50.932;5.342;2022-08-19T13:41:28;25.00;99.90
17988;DHT22;9119;50.932;5.342;2022-08-19T13:43:55;24.90;99.90
17988;DHT22;9119;50.932;5.342;2022-08-19T13:46:20;24.80;99.90
17988;DHT22;9119;50.932;5.342;2022-08-19T13:48:46;24.70;99.90
17988;DHT22;9119;50.932;5.342;2022-08-19T13:51:16;24.60;99.90
17988;DHT22;9119;50.932;5.342;2022-08-19T13:53:43;24.60;99.90
17988;DHT22;9119;50.932;5.342;2022-08-19T13:56:13;24.60;99.90
17988;DHT22;9119;50.932;5.342;2022-08-19T13:58:40;24.70;99.90
17988;DHT22;9119;50.932;5.342;2022-08-19T14:01:05;25.00;99.90
17988;DHT22;9119;50.932;5.342;2022-08-19T14:03:33;25.10;99.90
17988;DHT22;9119;50.932;5.342;2022-08-19T14:05:59;25.20;99.90
17988;DHT22;9119;50.932;5.342;2022-08-19T14:08:25;25.20;99.90
17988;DHT22;9119;50.932;5.342;2022-08-19T14:10:56;25.10;99.90
17988;DHT22;9119;50.932;5.342;2022-08-19T14:13:22;25.30;99.90
17988;DHT22;9119;50.932;5.342;2022-08-19T14:15:49;25.60;99.90
17988;DHT22;9119;50.932;5.342;2022-08-19T14:18:17;25.90;99.90
17988;DHT22;9119;50.932;5.342;2022-08-19T14:20:43;25.60;99.90
17988;DHT22;9119;50.932;5.342;2022-08-19T14:23:09;25.90;99.90
17988;DHT22;9119;50.932;5.342;2022-08-19T14:25:36;26.10;99.90
17988;DHT22;9119;50.932;5.342;2022-08-19T14:28:02;26.40;99.90
17988;DHT22;9119;50.932;5.342;2022-08-19T14:30:30;26.40;99.90
17988;DHT22;9119;50.932;5.342;2022-08-19T14:32:58;26.30;99.90
17988;DHT22;9119;50.932;5.342;2022-08-19T14:35:25;26.20;99.90
17988;DHT22;9119;50.932;5.342;2022-08-19T14:37:52;26.40;99.90
17988;DHT22;9119;50.932;5.342;2022-08-19T14:40:23;26.40;99.90
17988;DHT22;9119;50.932;5.342;2022-08-19T14:43:03;26.40;99.90
17988;DHT22;9119;50.932;5.342;2022-08-19T14:45:35;26.10;99.90
17988;DHT22;9119;50.932;5.342;2022-08-19T14:48:01;26.00;99.90
17988;DHT22;9119;50.932;5.342;2022-08-19T14:50:26;25.80;99.90
17988;DHT22;9119;50.932;5.342;2022-08-19T14:53:00;25.70;99.90
17988;DHT22;9119;50.932;5.342;2022-08-19T14:55:29;25.90;99.90
17988;DHT22;9119;50.932;5.342;2022-08-19T14:57:55;26.00;99.90
17988;DHT22;9119;50.932;5.342;2022-08-19T15:00:21;25.90;99.90
17988;DHT22;9119;50.932;5.342;2022-08-19T15:02:48;26.00;99.90
17988;DHT22;9119;50.932;5.342;2022-08-19T15:05:14;26.20;99.90
17988;DHT22;9119;50.932;5.342;2022-08-19T15:07:42;26.00;99.90
17988;DHT22;9119;50.932;5.342;2022-08-19T15:10:10;25.90;99.90
17988;DHT22;9119;50.932;5.342;2022-08-19T15:12:37;25.90;99.90
17988;DHT22;9119;50.932;5.342;2022-08-19T15:15:10;26.00;99.90
17988;DHT22;9119;50.932;5.342;2022-08-19T15:17:38;25.80;99.90
17988;DHT22;9119;50.932;5.342;2022-08-19T15:20:06;25.70;99.90
17988;DHT22;9119;50.932;5.342;2022-08-19T15:22:32;25.90;99.90
17988;DHT22;9119;50.932;5.342;2022-08-19T15:24:58;25.90;99.90
17988;DHT22;9119;50.932;5.342;2022-08-19T15:27:23;25.80;99.90
17988;DHT22;9119;50.932;5.342;2022-08-19T15:29:49;25.80;99.90
17988;DHT22;9119;50.932;5.342;2022-08-19T15:32:15;25.70;99.90
17988;DHT22;9119;50.932;5.342;2022-08-19T15:34:40;25.70;99.90
17988;DHT22;9119;50.932;5.342;2022-08-19T15:37:07;25.40;99.90
17988;DHT22;9119;50.932;5.342;2022-08-19T15:39:32;25.40;99.90
17988;DHT22;9119;50.932;5.342;2022-08-19T15:41:58;25.40;99.90
17988;DHT22;9119;50.932;5.342;2022-08-19T15:44:28;25.40;99.90
17988;DHT22;9119;50.932;5.342;2022-08-19T15:46:54;25.40;99.90
17988;DHT22;9119;50.932;5.342;2022-08-19T15:49:20;25.40;99.90
17988;DHT22;9119;50.932;5.342;2022-08-19T15:51:47;25.40;99.90
17988;DHT22;9119;50.932;5.342;2022-08-19T15:54:16;25.50;99.90
17988;DHT22;9119;50.932;5.342;2022-08-19T15:56:43;25.40;99.90
17988;DHT22;9119;50.932;5.342;2022-08-19T15:59:27;25.40;99.90
17988;DHT22;9119;50.932;5.342;2022-08-19T16:02:12;25.50;99.90
17988;DHT22;9119;50.932;5.342;2022-08-19T16:04:56;25.60;99.90